createdAt,value
2022-08-19T00:03:14.618Z,26.98
2022-08-19T00:13:15.893Z,26.92
2022-08-19T00:23:18.665Z,26.98
2022-08-19T00:33:21.495Z,26.92
2022-08-19T00:43:22.774Z,26.94
2022-08-19T00:53:24.022Z,26.91
2022-08-19T01:03:25.271Z,26.86
2022-08-19T01:13:26.546Z,26.88
2022-08-19T01:23:27.821Z,26.86
2022-08-19T01:33:29.107Z,26.90
2022-08-19T01:43:31.902Z,26.86
2022-08-19T01:53:33.768Z,26.84
2022-08-19T02:03:35.196Z,26.82
2022-08-19T02:13:36.466Z,26.84
2022-08-19T02:23:37.743Z,26.83
2022-08-19T02:33:39.066Z,26.85
2022-08-19T02:43:44.474Z,26.77
2022-08-19T02:54:02.994Z,26.80
2022-08-19T03:04:05.750Z,26.83
2022-08-19T03:14:07.008Z,26.78
2022-08-19T03:24:08.255Z,26.74
2022-08-19T03:34:09.511Z,26.74
2022-08-19T03:44:16.869Z,26.75
2022-08-19T03:54:19.880Z,26.75
2022-08-19T04:04:21.142Z,26.62
2022-08-19T04:14:22.394Z,26.48
2022-08-19T04:24:23.658Z,26.46
2022-08-19T04:34:24.985Z,24.98
2022-08-19T04:44:26.274Z,24.58
2022-08-19T04:54:37.146Z,24.34
2022-08-19T05:04:40.398Z,24.49
2022-08-19T05:14:41.848Z,24.02
2022-08-19T05:25:02.489Z,24.74
2022-08-19T05:35:07.575Z,25.08
2022-08-19T05:45:08.905Z,25.30
2022-08-19T05:55:10.362Z,25.34
2022-08-19T06:05:11.849Z,25.51
2022-08-19T06:15:13.284Z,25.80
2022-08-19T06:25:14.671Z,25.66
2022-08-19T06:35:17.515Z,25.85
2022-08-19T06:45:18.811Z,25.86
2022-08-19T06:55:26.060Z,25.75
2022-08-19T07:05:27.440Z,25.96
2022-08-19T07:15:28.922Z,25.65
2022-08-19T07:25:32.423Z,25.84
2022-08-19T07:35:34.836Z,25.87
2022-08-19T07:45:36.233Z,25.95
2022-08-19T07:55:41.105Z,25.99
2022-08-19T08:05:45.132Z,25.94
2022-08-19T08:15:46.643Z,25.87
2022-08-19T08:25:48.052Z,25.73
2022-08-19T08:35:50.707Z,26.24
2022-08-19T08:45:53.750Z,26.29
2022-08-19T08:55:55.180Z,26.39
2022-08-19T09:05:56.523Z,26.37
2022-08-19T09:15:57.921Z,26.51
2022-08-19T09:25:59.414Z,26.53
2022-08-19T09:36:00.779Z,26.45
2022-08-19T09:46:02.555Z,26.59
2022-08-19T09:56:04.148Z,26.34
2022-08-19T10:06:05.593Z,26.24
2022-08-19T10:16:16.795Z,26.15
2022-08-19T10:26:18.222Z,26.30
2022-08-19T10:36:20.609Z,26.28
2022-08-19T10:46:21.883Z,26.25
2022-08-19T10:56:23.178Z,26.28
2022-08-19T11:06:26.563Z,26.31
2022-08-19T11:16:27.836Z,26.40
2022-08-19T11:26:29.107Z,26.40
2022-08-19T11:36:30.565Z,26.71
2022-08-19T11:46:33.883Z,26.83
2022-08-19T11:56:42.936Z,26.88
2022-08-19T12:06:50.919Z,26.91
2022-08-19T12:16:58.873Z,26.85
2022-08-19T12:27:12.498Z,26.62
2022-08-19T12:37:15.977Z,26.62
2022-08-19T12:47:23.912Z,26.68
2022-08-19T12:57:33.397Z,26.70
2022-08-19T13:07:40.864Z,26.60
2022-08-19T13:17:48.955Z,26.65
2022-08-19T13:27:56.898Z,26.67
2022-08-19T13:38:04.906Z,26.65
2022-08-19T13:48:12.920Z,26.65
2022-08-19T13:58:21.911Z,26.64
2022-08-19T14:08:29.903Z,26.61
2022-08-19T14:18:37.907Z,26.70
2022-08-19T14:28:46.922Z,26.71
2022-08-19T14:38:54.912Z,26.71
2022-08-19T14:49:09.510Z,26.77
2022-08-19T14:59:11.116Z,26.79
2022-08-19T15:09:21.009Z,26.74
2022-08-19T15:19:28.907Z,26.83
2022-08-19T15:29:37.043Z,26.83
2022-08-19T15:39:45.015Z,26.82
2022-08-19T15:49:53.754Z,26.80
2022-08-19T16:00:02.895Z,26.54
2022-08-19T16:10:26.157Z,26.08
2022-08-19T16:20:29.157Z,25.59
2022-08-19T16:30:30.516Z,25.56
2022-08-19T16:40:33.955Z,25.29
2022-08-19T16:50:49.257Z,25.11
2022-08-19T17:00:52.024Z,25.41
2022-08-19T17:11:17.077Z,25.13
2022-08-19T17:21:19.403Z,25.06
2022-08-19T17:31:20.887Z,24.92
2022-08-19T17:41:24.104Z,24.82
2022-08-19T17:51:31.995Z,24.65
2022-08-19T18:01:53.591Z,24.78
2022-08-19T18:11:55.992Z,25.52
2022-08-19T18:21:57.363Z,24.74
2022-08-19T18:32:05.238Z,24.52
2022-08-19T18:42:06.694Z,24.68
2022-08-19T18:52:08.137Z,24.81
2022-08-19T19:02:09.530Z,24.86
2022-08-19T19:12:10.881Z,25.29
2022-08-19T19:22:12.318Z,25.34
2022-08-19T19:32:13.704Z,24.83
2022-08-19T19:42:19.817Z,24.69
2022-08-19T19:52:22.343Z,24.27
2022-08-19T20:02:23.697Z,24.28
2022-08-19T20:12:25.055Z,25.77
2022-08-19T20:22:26.459Z,26.03
2022-08-19T20:32:27.847Z,26.08
2022-08-19T20:42:29.258Z,26.14
2022-08-19T20:52:30.609Z,26.22
2022-08-19T21:02:32.111Z,26.21
2022-08-19T21:12:33.502Z,26.28
2022-08-19T21:22:34.846Z,26.27
2022-08-19T21:32:36.140Z,26.30
2022-08-19T21:42:37.557Z,26.34
2022-08-19T21:52:38.857Z,26.33
2022-08-19T22:02:40.100Z,26.31
2022-08-19T22:12:51.489Z,26.32
2022-08-19T22:22:53.082Z,26.33
2022-08-19T22:32:56.276Z,26.31
2022-08-19T22:42:57.746Z,26.32
2022-08-19T22:52:59.019Z,26.32
2022-08-19T23:03:00.296Z,26.33
2022-08-19T23:13:01.545Z,26.34
2022-08-19T23:23:02.801Z,26.35
2022-08-19T23:33:04.052Z,26.36
2022-08-19T23:43:07.881Z,26.37
2022-08-19T23:53:09.563Z,26.36
